createdAt,value
2023-03-16T00:00:33.195Z,47.26
2023-03-16T00:01:33.185Z,45.44
2023-03-16T00:04:52.957Z,44.71
2023-03-16T00:05:52.959Z,44.58
2023-03-16T00:06:52.959Z,46.34
2023-03-16T00:07:52.934Z,46.96
2023-03-16T00:08:52.921Z,47.90
2023-03-16T00:09:52.905Z,47.59
2023-03-16T00:10:52.891Z,47.01
2023-03-16T00:11:52.884Z,47.19
2023-03-16T00:12:52.871Z,47.06
2023-03-16T00:13:52.874Z,47.07
2023-03-16T00:14:52.848Z,47.26
2023-03-16T00:15:52.845Z,46.26
2023-03-16T00:16:52.834Z,46.26
2023-03-16T00:17:52.829Z,47.16
2023-03-16T00:18:52.818Z,47.03
2023-03-16T00:19:52.803Z,45.83
2023-03-16T00:20:52.813Z,46.41
2023-03-16T00:21:52.803Z,46.24
2023-03-16T00:22:52.782Z,46.06
2023-03-16T00:23:52.774Z,46.88
2023-03-16T00:24:52.828Z,47.17
2023-03-16T00:25:52.743Z,47.24
2023-03-16T00:26:52.730Z,46.50
2023-03-16T00:27:52.722Z,46.83
2023-03-16T00:28:52.717Z,47.34
2023-03-16T00:29:52.699Z,46.54
2023-03-16T00:30:52.688Z,46.71
2023-03-16T00:31:52.733Z,45.76
2023-03-16T00:32:52.712Z,44.60
2023-03-16T00:33:52.666Z,45.50
2023-03-16T00:34:52.648Z,46.60
2023-03-16T00:35:52.754Z,46.14
2023-03-16T00:36:52.620Z,46.29
2023-03-16T00:37:52.703Z,46.76
2023-03-16T00:38:52.606Z,45.73
2023-03-16T00:39:52.589Z,50.14
2023-03-16T00:40:52.571Z,45.36
2023-03-16T00:41:52.565Z,45.15
2023-03-16T00:42:52.552Z,47.33
2023-03-16T00:43:52.570Z,46.98
2023-03-16T00:44:52.529Z,46.98
2023-03-16T00:45:52.593Z,46.88
2023-03-16T00:46:52.513Z,47.02
2023-03-16T00:47:52.500Z,47.57
2023-03-16T00:48:52.488Z,48.19
2023-03-16T00:49:52.493Z,47.05
2023-03-16T00:50:52.471Z,47.50
2023-03-16T00:51:52.463Z,47.61
2023-03-16T00:52:52.442Z,46.75
2023-03-16T00:53:52.440Z,47.27
2023-03-16T00:54:52.432Z,47.74
2023-03-16T00:55:52.412Z,48.63
2023-03-16T00:56:52.401Z,47.83
2023-03-16T00:57:52.394Z,46.81
2023-03-16T00:58:52.380Z,44.27
2023-03-16T00:59:52.402Z,45.02
2023-03-16T01:00:52.387Z,46.09
2023-03-16T01:01:52.349Z,45.84
2023-03-16T01:02:52.373Z,44.97
2023-03-16T01:03:52.350Z,46.88
2023-03-16T01:04:52.334Z,46.17
2023-03-16T01:05:52.319Z,47.43
2023-03-16T01:06:52.305Z,46.04
2023-03-16T01:07:52.304Z,44.79
2023-03-16T01:08:52.287Z,43.86
2023-03-16T01:09:52.278Z,43.80
2023-03-16T01:10:52.254Z,44.61
2023-03-16T01:11:52.245Z,44.36
2023-03-16T01:12:52.230Z,44.17
2023-03-16T01:13:52.220Z,44.02
2023-03-16T01:14:52.219Z,45.25
2023-03-16T01:15:52.201Z,45.20
2023-03-16T01:16:52.325Z,45.91
2023-03-16T01:17:52.184Z,45.81
2023-03-16T01:18:52.166Z,50.31
2023-03-16T01:19:52.178Z,45.39
2023-03-16T01:20:52.152Z,45.43
2023-03-16T01:21:52.136Z,45.78
2023-03-16T01:22:52.129Z,46.48
2023-03-16T01:23:52.122Z,46.21
2023-03-16T01:24:52.120Z,45.79
2023-03-16T01:25:52.098Z,46.72
2023-03-16T01:26:52.086Z,45.72
2023-03-16T01:27:52.082Z,43.73
2023-03-16T01:28:52.070Z,44.43
2023-03-16T01:29:52.068Z,44.59
2023-03-16T01:30:52.073Z,45.15
2023-03-16T01:31:52.046Z,44.68
2023-03-16T01:32:52.052Z,45.58
2023-03-16T01:33:52.015Z,46.28
2023-03-16T01:34:52.013Z,45.94
2023-03-16T01:35:52.038Z,45.68
2023-03-16T01:36:51.989Z,48.56
2023-03-16T01:37:51.976Z,46.28
2023-03-16T01:38:51.962Z,46.03
2023-03-16T01:39:51.965Z,45.13
2023-03-16T01:40:51.947Z,47.18
2023-03-16T01:41:51.932Z,47.51
2023-03-16T01:42:51.920Z,46.68
2023-03-16T01:43:51.916Z,46.24
2023-03-16T01:44:51.906Z,45.55
2023-03-16T01:45:51.953Z,45.86
2023-03-16T01:46:51.871Z,45.31
2023-03-16T01:47:51.874Z,45.23
2023-03-16T01:48:51.868Z,45.44
2023-03-16T01:49:51.863Z,44.92
2023-03-16T01:50:51.837Z,44.82
2023-03-16T01:51:51.826Z,43.82
2023-03-16T01:52:51.815Z,45.05
2023-03-16T01:53:51.811Z,45.40
2023-03-16T01:54:51.808Z,45.02
2023-03-16T01:55:51.789Z,45.53
2023-03-16T01:56:51.782Z,45.33
2023-03-16T01:57:51.774Z,44.87
2023-03-16T01:58:51.756Z,45.48
2023-03-16T01:59:51.758Z,44.99
2023-03-16T02:00:51.730Z,46.28
2023-03-16T02:01:51.760Z,45.56
2023-03-16T02:02:51.712Z,46.40
2023-03-16T02:03:51.701Z,47.61
2023-03-16T02:04:52.693Z,45.98
2023-03-16T02:05:51.681Z,44.97
2023-03-16T02:06:51.668Z,45.91
2023-03-16T02:07:51.660Z,45.83
2023-03-16T02:08:51.653Z,46.34
2023-03-16T02:09:51.666Z,45.80
2023-03-16T02:10:51.628Z,45.27
2023-03-16T02:11:51.620Z,45.78
2023-03-16T02:12:51.615Z,46.06
2023-03-16T02:13:51.603Z,46.57
2023-03-16T02:14:51.603Z,46.38
2023-03-16T02:15:51.693Z,45.52
2023-03-16T02:16:51.572Z,45.35
2023-03-16T02:17:51.561Z,44.77
2023-03-16T02:18:51.555Z,45.52
2023-03-16T02:19:51.548Z,49.91
2023-03-16T02:20:51.530Z,46.41
2023-03-16T02:21:51.518Z,45.76
2023-03-16T02:22:51.520Z,47.20
2023-03-16T02:23:51.533Z,46.13
2023-03-16T02:24:51.506Z,44.18
2023-03-16T02:25:51.480Z,46.35
2023-03-16T02:26:51.471Z,46.83
2023-03-16T02:27:51.454Z,49.61
2023-03-16T02:28:51.444Z,48.24
2023-03-16T02:29:51.439Z,47.20
2023-03-16T02:30:51.506Z,46.10
2023-03-16T02:31:51.409Z,46.56
2023-03-16T02:32:51.448Z,46.52
2023-03-16T02:33:51.396Z,46.83
2023-03-16T02:34:51.392Z,45.95
2023-03-16T02:35:51.416Z,45.81
2023-03-16T02:36:51.362Z,43.75
2023-03-16T02:37:51.352Z,43.70
2023-03-16T02:38:51.341Z,48.06
2023-03-16T02:39:51.338Z,44.99
2023-03-16T02:40:51.319Z,47.99
2023-03-16T02:41:51.309Z,43.73
2023-03-16T02:42:51.299Z,45.34
2023-03-16T02:43:51.294Z,47.03
2023-03-16T02:44:51.284Z,46.72
2023-03-16T02:45:51.304Z,46.78
2023-03-16T02:46:51.299Z,45.78
2023-03-16T02:47:51.243Z,45.11
2023-03-16T02:48:51.232Z,46.49
2023-03-16T02:49:51.233Z,50.03
2023-03-16T02:50:51.235Z,48.78
2023-03-16T02:51:51.216Z,43.45
2023-03-16T02:52:51.194Z,43.66
2023-03-16T02:53:51.206Z,43.68
2023-03-16T02:54:51.189Z,44.23
2023-03-16T02:55:51.162Z,44.68
2023-03-16T02:56:51.145Z,44.90
2023-03-16T02:57:51.137Z,45.76
2023-03-16T02:58:51.125Z,46.68
2023-03-16T02:59:51.121Z,45.78
2023-03-16T03:00:51.115Z,45.17
2023-03-16T03:01:51.101Z,45.85
2023-03-16T03:02:51.095Z,45.68
2023-03-16T03:03:51.076Z,46.31
2023-03-16T03:04:51.068Z,46.91
2023-03-16T03:05:51.070Z,47.28
2023-03-16T03:06:51.046Z,50.56
2023-03-16T03:07:51.036Z,48.06
2023-03-16T03:08:51.025Z,49.24
2023-03-16T03:09:51.017Z,49.00
2023-03-16T03:10:51.014Z,47.80
2023-03-16T03:11:50.997Z,48.23
2023-03-16T03:12:50.984Z,50.62
2023-03-16T03:13:50.981Z,50.07
2023-03-16T03:14:50.966Z,51.98
2023-03-16T03:15:51.069Z,50.97
2023-03-16T03:16:50.949Z,49.85
2023-03-16T03:17:50.933Z,48.56
2023-03-16T03:18:50.929Z,49.80
2023-03-16T03:19:50.921Z,49.51
2023-03-16T03:20:50.919Z,50.78
2023-03-16T03:21:50.900Z,50.77
2023-03-16T03:22:50.886Z,52.11
2023-03-16T03:23:50.881Z,52.65
2023-03-16T03:24:50.874Z,52.54
2023-03-16T03:25:50.887Z,52.16
2023-03-16T03:26:50.848Z,52.02
2023-03-16T03:27:50.978Z,50.69
2023-03-16T03:28:50.830Z,50.97
2023-03-16T03:29:50.821Z,51.97
2023-03-16T03:30:50.820Z,51.57
2023-03-16T03:31:50.851Z,54.13
2023-03-16T03:32:50.824Z,50.98
2023-03-16T03:33:50.782Z,52.94
2023-03-16T03:34:50.772Z,53.53
2023-03-16T03:35:50.779Z,48.34
2023-03-16T03:36:50.749Z,50.07
2023-03-16T03:37:50.756Z,52.77
2023-03-16T03:38:50.729Z,50.78
2023-03-16T03:39:50.732Z,49.93
2023-03-16T03:40:50.724Z,49.88
2023-03-16T03:41:50.705Z,48.57
2023-03-16T03:42:50.697Z,49.46
2023-03-16T03:43:50.689Z,49.09
2023-03-16T03:44:50.673Z,46.84
2023-03-16T03:45:50.716Z,47.71
2023-03-16T03:46:50.736Z,48.00
2023-03-16T03:47:50.648Z,47.71
2023-03-16T03:48:50.635Z,48.36
2023-03-16T03:49:50.636Z,51.33
2023-03-16T03:50:50.627Z,50.65
2023-03-16T03:51:50.607Z,50.22
2023-03-16T03:52:50.594Z,52.49
2023-03-16T03:53:50.587Z,51.54
2023-03-16T03:54:50.575Z,50.77
2023-03-16T03:55:50.588Z,50.49
2023-03-16T03:56:50.553Z,53.02
2023-03-16T03:57:50.560Z,51.64
2023-03-16T03:58:50.540Z,53.03
2023-03-16T03:59:50.532Z,52.20
2023-03-16T04:00:50.527Z,52.16
2023-03-16T04:01:50.536Z,51.35
2023-03-16T04:02:50.616Z,49.51
2023-03-16T04:03:50.498Z,49.34
2023-03-16T04:04:50.481Z,50.93
2023-03-16T04:05:50.484Z,50.58
2023-03-16T04:06:50.459Z,50.29
2023-03-16T04:07:50.454Z,50.30
2023-03-16T04:08:50.441Z,49.32
2023-03-16T04:09:50.428Z,49.33
2023-03-16T04:10:50.425Z,53.27
2023-03-16T04:11:50.412Z,54.82
2023-03-16T04:12:50.398Z,51.35
2023-03-16T04:13:50.390Z,49.74
2023-03-16T04:14:50.382Z,48.57
2023-03-16T04:15:50.374Z,51.58
2023-03-16T04:16:50.414Z,51.18
2023-03-16T04:17:50.349Z,53.52
2023-03-16T04:18:50.331Z,51.08
2023-03-16T04:19:50.331Z,53.49
2023-03-16T04:20:50.328Z,52.48
2023-03-16T04:21:50.311Z,55.40
2023-03-16T04:22:50.296Z,49.27
2023-03-16T04:23:50.283Z,49.06
2023-03-16T04:24:50.271Z,48.79
2023-03-16T04:25:50.279Z,53.12
2023-03-16T04:26:50.253Z,49.92
2023-03-16T04:27:51.369Z,48.07
2023-03-16T04:28:51.355Z,49.38
2023-03-16T04:29:51.347Z,49.48
2023-03-16T04:30:51.434Z,49.95
2023-03-16T04:31:51.332Z,51.42
2023-03-16T04:32:51.390Z,51.16
2023-03-16T04:33:51.309Z,52.29
2023-03-16T04:34:51.300Z,48.22
2023-03-16T04:35:51.341Z,52.32
2023-03-16T04:36:51.281Z,50.50
2023-03-16T04:37:51.282Z,52.27
2023-03-16T04:38:51.262Z,48.97
2023-03-16T04:39:51.251Z,52.07
2023-03-16T04:40:51.253Z,50.18
2023-03-16T04:41:51.235Z,48.31
2023-03-16T04:42:51.218Z,49.89
2023-03-16T04:43:51.220Z,49.21
2023-03-16T04:44:51.205Z,52.38
2023-03-16T04:45:52.252Z,53.96
2023-03-16T04:46:51.184Z,48.50
2023-03-16T04:47:51.180Z,47.88
2023-03-16T04:48:51.167Z,49.33
2023-03-16T04:49:51.159Z,48.63
2023-03-16T04:50:51.161Z,53.43
2023-03-16T04:51:51.145Z,52.77
2023-03-16T04:52:51.132Z,51.72
2023-03-16T04:53:51.119Z,48.71
2023-03-16T04:54:51.109Z,51.41
2023-03-16T04:55:51.139Z,51.75
2023-03-16T04:56:51.090Z,52.89
2023-03-16T04:57:51.078Z,52.25
2023-03-16T04:58:51.061Z,53.33
2023-03-16T04:59:51.070Z,53.83
2023-03-16T05:00:51.066Z,54.13
2023-03-16T05:01:51.089Z,52.95
2023-03-16T05:02:51.029Z,48.72
2023-03-16T05:03:51.031Z,50.08
2023-03-16T05:04:51.009Z,52.10
2023-03-16T05:05:51.074Z,54.06
2023-03-16T05:06:51.006Z,54.61
2023-03-16T05:07:51.005Z,51.85
2023-03-16T05:08:51.153Z,50.56
2023-03-16T05:09:50.968Z,54.00
2023-03-16T05:10:50.961Z,50.29
2023-03-16T05:11:50.948Z,49.34
2023-03-16T05:12:50.935Z,51.79
2023-03-16T05:13:50.926Z,49.05
2023-03-16T05:14:50.920Z,50.40
2023-03-16T05:15:50.946Z,51.53
2023-03-16T05:16:50.913Z,54.31
2023-03-16T05:17:50.892Z,52.52
2023-03-16T05:18:50.881Z,53.54
2023-03-16T05:19:50.870Z,53.22
2023-03-16T05:20:50.862Z,54.54
2023-03-16T05:21:50.864Z,53.65
2023-03-16T05:22:50.843Z,56.20
2023-03-16T05:23:50.826Z,52.36
2023-03-16T05:24:50.820Z,51.31
2023-03-16T05:25:50.828Z,52.16
2023-03-16T05:26:50.805Z,54.43
2023-03-16T05:27:50.792Z,51.90
2023-03-16T05:28:50.782Z,52.41
2023-03-16T05:29:50.778Z,54.32
2023-03-16T05:30:50.761Z,55.02
2023-03-16T05:31:50.754Z,55.53
2023-03-16T05:32:50.770Z,55.92
2023-03-16T05:33:50.729Z,52.79
2023-03-16T05:34:50.721Z,52.26
2023-03-16T05:35:55.051Z,54.50
2023-03-16T05:36:50.706Z,54.26
2023-03-16T05:37:51.686Z,55.08
2023-03-16T05:38:50.682Z,55.84
2023-03-16T05:39:50.677Z,56.95
2023-03-16T05:40:50.648Z,55.18
2023-03-16T05:41:51.659Z,54.92
2023-03-16T05:42:50.641Z,56.16
2023-03-16T05:43:50.638Z,53.53
2023-03-16T05:44:50.624Z,53.21
2023-03-16T05:45:50.609Z,52.34
2023-03-16T05:46:50.650Z,57.62
2023-03-16T05:47:50.611Z,56.91
2023-03-16T05:48:50.589Z,54.95
2023-03-16T05:49:50.584Z,56.81
2023-03-16T05:50:50.584Z,54.07
2023-03-16T05:51:50.562Z,52.47
2023-03-16T05:52:50.540Z,58.26
2023-03-16T05:53:50.541Z,54.91
2023-03-16T05:54:50.528Z,55.07
2023-03-16T05:55:50.518Z,55.74
2023-03-16T05:56:50.512Z,53.65
2023-03-16T05:57:50.497Z,54.77
2023-03-16T05:58:50.487Z,54.92
2023-03-16T05:59:50.486Z,52.95
2023-03-16T06:00:50.469Z,54.96
2023-03-16T06:01:50.477Z,54.91
2023-03-16T06:02:50.458Z,54.05
2023-03-16T06:03:50.461Z,52.05
2023-03-16T06:04:50.481Z,55.69
2023-03-16T06:05:50.424Z,52.67
2023-03-16T06:06:50.426Z,53.96
2023-03-16T06:07:50.410Z,55.33
2023-03-16T06:08:50.394Z,52.52
2023-03-16T06:09:50.389Z,54.08
2023-03-16T06:10:50.377Z,57.88
2023-03-16T06:11:50.417Z,57.58
2023-03-16T06:12:50.358Z,52.58
2023-03-16T06:13:50.356Z,56.33
2023-03-16T06:14:50.339Z,54.96
2023-03-16T06:15:50.382Z,55.72
2023-03-16T06:16:50.331Z,56.09
2023-03-16T06:17:50.313Z,54.14
2023-03-16T06:18:50.308Z,56.33
2023-03-16T06:19:50.300Z,54.46
2023-03-16T06:20:50.277Z,53.49
2023-03-16T06:21:50.298Z,56.47
2023-03-16T06:22:50.259Z,53.62
2023-03-16T06:23:50.253Z,55.94
2023-03-16T06:24:50.239Z,56.48
2023-03-16T06:25:50.238Z,56.26
2023-03-16T06:26:50.239Z,55.39
2023-03-16T06:27:50.212Z,54.62
2023-03-16T06:28:50.201Z,55.78
2023-03-16T06:29:50.192Z,55.71
2023-03-16T06:30:50.183Z,58.89
2023-03-16T06:31:50.267Z,60.02
2023-03-16T06:32:50.186Z,56.64
2023-03-16T06:33:50.155Z,56.91
2023-03-16T06:34:50.150Z,55.31
2023-03-16T06:35:50.192Z,53.36
2023-03-16T06:36:50.152Z,56.97
2023-03-16T06:37:50.112Z,58.14
2023-03-16T06:38:51.106Z,58.34
2023-03-16T06:39:50.110Z,57.86
2023-03-16T06:40:50.092Z,55.61
2023-03-16T06:41:50.095Z,58.03
2023-03-16T06:42:51.404Z,57.37
2023-03-16T06:43:50.071Z,58.76
2023-03-16T06:44:50.063Z,55.22
2023-03-16T06:45:50.094Z,55.10
2023-03-16T06:46:50.044Z,53.09
2023-03-16T06:47:50.734Z,55.90
2023-03-16T06:48:50.012Z,58.88
2023-03-16T06:49:49.999Z,58.97
2023-03-16T06:50:49.993Z,53.90
2023-03-16T06:51:49.993Z,54.44
2023-03-16T06:52:49.984Z,53.25
2023-03-16T06:53:49.970Z,55.60
2023-03-16T06:54:49.962Z,53.05
2023-03-16T06:55:49.959Z,52.33
2023-03-16T06:56:49.954Z,54.35
2023-03-16T06:57:49.932Z,57.86
2023-03-16T06:58:49.919Z,55.54
2023-03-16T07:00:04.761Z,55.50
2023-03-16T07:00:52.763Z,55.39
2023-03-16T07:01:50.292Z,57.89
2023-03-16T07:02:49.931Z,56.81
2023-03-16T07:03:49.907Z,54.67
2023-03-16T07:04:50.864Z,54.79
2023-03-16T07:05:49.929Z,54.78
2023-03-16T07:06:50.743Z,56.50
2023-03-16T07:07:56.671Z,52.76
2023-03-16T07:08:50.147Z,57.84
2023-03-16T07:09:49.861Z,54.69
2023-03-16T07:10:49.832Z,53.67
2023-03-16T07:11:49.804Z,58.18
2023-03-16T07:12:49.913Z,55.13
2023-03-16T07:13:50.769Z,53.61
2023-03-16T07:14:53.651Z,51.25
2023-03-16T07:15:50.969Z,55.18
2023-03-16T07:16:49.813Z,55.56
2023-03-16T07:17:49.891Z,55.63
2023-03-16T07:19:17.356Z,53.44
2023-03-16T07:19:49.772Z,53.32
2023-03-16T07:20:49.727Z,54.03
2023-03-16T07:21:49.732Z,57.78
2023-03-16T07:22:49.685Z,55.50
2023-03-16T07:23:49.746Z,55.05
2023-03-16T07:24:49.692Z,53.88
2023-03-16T07:25:49.762Z,53.17
2023-03-16T07:26:49.678Z,54.81
2023-03-16T07:27:51.911Z,52.91
2023-03-16T07:28:50.628Z,52.42
2023-03-16T07:29:49.638Z,56.15
2023-03-16T07:31:02.824Z,53.12
2023-03-16T07:31:51.655Z,56.43
2023-03-16T07:32:49.695Z,54.82
2023-03-16T07:33:49.599Z,55.36
2023-03-16T07:34:49.601Z,57.02
2023-03-16T07:35:49.618Z,55.98
2023-03-16T07:36:49.635Z,56.66
2023-03-16T07:37:49.533Z,56.02
2023-03-16T07:38:49.531Z,54.08
2023-03-16T07:39:49.524Z,54.06
2023-03-16T07:40:49.566Z,54.38
2023-03-16T07:41:49.512Z,56.65
2023-03-16T07:42:49.520Z,57.26
2023-03-16T07:43:49.481Z,55.66
2023-03-16T07:44:51.670Z,55.39
2023-03-16T07:45:49.512Z,60.21
2023-03-16T07:46:49.458Z,56.42
2023-03-16T07:47:49.449Z,56.95
2023-03-16T07:48:49.457Z,58.97
2023-03-16T07:49:49.458Z,55.59
2023-03-16T07:50:49.429Z,55.33
2023-03-16T07:51:49.416Z,58.30
2023-03-16T07:52:49.455Z,55.50
2023-03-16T07:53:49.399Z,55.17
2023-03-16T07:54:49.397Z,59.04
2023-03-16T07:55:49.360Z,58.14
2023-03-16T07:56:50.022Z,55.60
2023-03-16T07:57:50.407Z,55.81
2023-03-16T07:58:49.365Z,58.08
2023-03-16T07:59:49.342Z,56.60
2023-03-16T08:00:49.327Z,58.11
2023-03-16T08:01:49.341Z,56.16
2023-03-16T08:02:49.361Z,55.67
2023-03-16T08:03:49.328Z,55.24
2023-03-16T08:04:49.323Z,56.64
2023-03-16T08:05:49.263Z,57.65
2023-03-16T08:06:49.321Z,54.55
2023-03-16T08:07:49.256Z,54.80
2023-03-16T08:08:49.262Z,54.40
2023-03-16T08:09:49.257Z,55.70
2023-03-16T08:10:49.236Z,55.94
2023-03-16T08:11:49.205Z,55.51
2023-03-16T08:12:49.240Z,54.19
2023-03-16T08:13:49.179Z,58.64
2023-03-16T08:14:49.194Z,54.72
2023-03-16T08:15:49.214Z,58.09
2023-03-16T08:16:49.161Z,55.25
2023-03-16T08:17:49.166Z,56.52
2023-03-16T08:18:49.146Z,53.87
2023-03-16T08:19:49.144Z,57.64
2023-03-16T08:20:49.147Z,58.20
2023-03-16T08:22:00.969Z,55.37
2023-03-16T08:22:51.117Z,54.66
2023-03-16T08:23:49.089Z,52.88
2023-03-16T08:24:49.090Z,52.83
2023-03-16T08:25:49.066Z,53.52
2023-03-16T08:26:49.065Z,54.03
2023-03-16T08:27:49.069Z,56.32
2023-03-16T08:28:49.110Z,57.81
2023-03-16T08:29:49.025Z,56.62
2023-03-16T08:30:49.173Z,58.25
2023-03-16T08:31:49.041Z,56.50
2023-03-16T08:32:49.025Z,56.38
2023-03-16T08:33:49.006Z,56.20
2023-03-16T08:34:49.027Z,56.78
2023-03-16T08:35:49.084Z,56.82
2023-03-16T08:36:48.982Z,56.68
2023-03-16T08:37:49.010Z,57.83
2023-03-16T08:39:05.538Z,57.50
2023-03-16T08:39:50.934Z,55.43
2023-03-16T08:40:48.983Z,55.71
2023-03-16T08:41:48.925Z,55.67
2023-03-16T08:42:48.946Z,56.04
2023-03-16T08:43:48.893Z,55.84
2023-03-16T08:44:55.813Z,55.28
2023-03-16T08:45:48.872Z,58.71
2023-03-16T08:46:48.977Z,55.94
2023-03-16T08:48:04.183Z,53.40
2023-03-16T08:48:48.919Z,55.96
2023-03-16T08:49:48.860Z,52.68
2023-03-16T08:50:48.889Z,55.00
2023-03-16T08:51:48.846Z,53.48
2023-03-16T08:52:48.822Z,57.01
2023-03-16T08:53:48.832Z,53.58
2023-03-16T08:55:02.010Z,53.81
2023-03-16T08:55:57.260Z,54.51
2023-03-16T08:56:48.783Z,54.27
2023-03-16T08:57:49.707Z,54.18
2023-03-16T08:58:50.554Z,54.35
2023-03-16T08:59:48.755Z,51.20
2023-03-16T09:00:50.528Z,53.61
2023-03-16T09:01:49.815Z,47.55
2023-03-16T09:02:49.731Z,53.96
2023-03-16T09:03:48.706Z,49.23
2023-03-16T09:04:48.714Z,53.79
2023-03-16T09:05:48.679Z,50.33
2023-03-16T09:06:55.842Z,51.43
2023-03-16T09:07:50.682Z,52.30
2023-03-16T09:08:48.649Z,51.57
2023-03-16T09:09:48.651Z,46.12
2023-03-16T09:10:48.630Z,48.65
2023-03-16T09:11:48.624Z,51.89
2023-03-16T09:12:48.628Z,53.42
2023-03-16T09:13:48.936Z,53.53
2023-03-16T09:14:48.593Z,49.04
2023-03-16T09:15:48.649Z,53.30
2023-03-16T09:16:48.581Z,45.27
2023-03-16T09:17:48.627Z,48.36
2023-03-16T09:18:48.564Z,52.31
2023-03-16T09:19:51.717Z,51.02
2023-03-16T09:20:49.551Z,46.33
2023-03-16T09:21:49.534Z,49.75
2023-03-16T09:22:48.521Z,52.50
2023-03-16T09:24:12.735Z,49.00
2023-03-16T09:25:20.191Z,52.00
2023-03-16T09:25:48.497Z,50.21
2023-03-16T09:26:48.502Z,45.11
2023-03-16T09:27:48.512Z,45.72
2023-03-16T09:28:48.461Z,46.87
2023-03-16T09:29:48.453Z,52.53
2023-03-16T09:30:48.442Z,44.79
2023-03-16T09:31:48.462Z,50.87
2023-03-16T09:32:48.461Z,52.77
2023-03-16T09:33:48.447Z,53.49
2023-03-16T09:34:48.408Z,53.69
2023-03-16T09:35:48.421Z,48.55
2023-03-16T09:36:48.531Z,52.17
2023-03-16T09:38:05.121Z,45.84
2023-03-16T09:38:50.414Z,50.41
2023-03-16T09:39:48.395Z,48.20
2023-03-16T09:40:48.379Z,48.14
2023-03-16T09:41:48.353Z,49.60
2023-03-16T09:42:48.345Z,46.35
2023-03-16T09:43:48.348Z,47.80
2023-03-16T09:44:48.348Z,47.01
2023-03-16T09:45:48.376Z,50.97
2023-03-16T09:46:48.323Z,47.17
2023-03-16T09:47:48.291Z,45.63
2023-03-16T09:48:48.299Z,49.14
2023-03-16T09:49:48.273Z,50.08
2023-03-16T09:50:49.629Z,48.66
2023-03-16T09:51:49.267Z,54.34
2023-03-16T09:52:48.257Z,46.43
2023-03-16T09:53:48.227Z,49.50
2023-03-16T09:54:48.215Z,54.28
2023-03-16T09:59:40.705Z,51.77
2023-03-16T10:00:40.689Z,46.76
2023-03-16T10:01:40.666Z,46.28
2023-03-16T10:02:40.666Z,47.15
2023-03-16T10:03:40.666Z,50.47
2023-03-16T10:04:40.657Z,48.53
2023-03-16T10:05:40.654Z,45.16
2023-03-16T10:06:40.632Z,50.63
2023-03-16T10:07:40.592Z,54.43
2023-03-16T10:08:40.863Z,53.95
2023-03-16T10:09:40.577Z,48.56
2023-03-16T10:10:40.580Z,47.31
2023-03-16T10:11:40.558Z,50.89
2023-03-16T10:12:40.570Z,48.41
2023-03-16T10:13:40.547Z,48.79
2023-03-16T10:14:40.563Z,49.57
2023-03-16T10:15:40.503Z,48.95
2023-03-16T10:16:40.588Z,50.47
2023-03-16T10:17:40.590Z,49.88
2023-03-16T10:18:40.515Z,53.74
2023-03-16T10:19:40.490Z,50.75
2023-03-16T10:20:40.503Z,52.07
2023-03-16T10:21:40.454Z,46.20
2023-03-16T10:22:40.444Z,53.01
2023-03-16T10:23:41.590Z,54.11
2023-03-16T10:24:40.447Z,45.93
2023-03-16T10:25:40.407Z,51.35
2023-03-16T10:26:40.394Z,53.30
2023-03-16T10:27:40.410Z,50.97
2023-03-16T10:28:40.414Z,52.70
2023-03-16T10:29:40.360Z,52.74
2023-03-16T10:30:41.855Z,55.21
2023-03-16T10:31:40.411Z,45.93
2023-03-16T10:32:40.360Z,50.14
2023-03-16T10:33:40.355Z,48.39
2023-03-16T10:34:40.331Z,51.31
2023-03-16T10:35:40.307Z,54.94
2023-03-16T10:36:40.325Z,50.47
2023-03-16T10:37:40.294Z,54.79
2023-03-16T10:38:40.384Z,50.94
2023-03-16T10:39:40.288Z,54.47
2023-03-16T10:40:40.305Z,52.94
2023-03-16T10:41:40.241Z,49.43
2023-03-16T10:42:40.245Z,50.06
2023-03-16T10:43:40.263Z,48.45
2023-03-16T10:44:40.248Z,46.96
2023-03-16T10:45:40.245Z,50.48
2023-03-16T10:46:40.398Z,54.74
2023-03-16T10:47:40.187Z,52.25
2023-03-16T10:48:40.189Z,48.84
2023-03-16T10:49:40.169Z,47.69
2023-03-16T10:50:40.176Z,46.22
2023-03-16T10:51:40.171Z,50.58
2023-03-16T10:52:40.158Z,50.15
2023-03-16T10:53:40.144Z,52.20
2023-03-16T10:54:40.244Z,48.85
2023-03-16T10:55:54.819Z,49.63
2023-03-16T10:56:40.128Z,46.18
2023-03-16T10:57:40.260Z,53.61
2023-03-16T11:01:06.074Z,49.32
2023-03-16T11:02:06.050Z,53.08
2023-03-16T11:03:06.033Z,47.64
2023-03-16T11:04:06.060Z,51.54
2023-03-16T11:05:06.046Z,48.75
2023-03-16T11:06:05.995Z,50.56
2023-03-16T11:07:05.989Z,53.10
2023-03-16T11:08:05.976Z,48.74
2023-03-16T11:09:06.470Z,45.08
2023-03-16T11:10:05.979Z,47.81
2023-03-16T11:11:05.955Z,51.78
2023-03-16T11:12:05.953Z,48.04
2023-03-16T11:13:05.945Z,56.30
2023-03-16T11:14:05.938Z,53.69
2023-03-16T11:15:09.382Z,49.99
2023-03-16T11:16:06.906Z,47.82
2023-03-16T11:17:05.937Z,51.33
2023-03-16T11:18:05.889Z,52.46
2023-03-16T11:19:05.906Z,52.56
2023-03-16T11:20:05.851Z,52.06
2023-03-16T11:21:05.866Z,50.09
2023-03-16T11:22:05.824Z,52.90
2023-03-16T11:23:05.842Z,50.73
2023-03-16T11:24:05.855Z,48.78
2023-03-16T11:25:05.797Z,49.36
2023-03-16T11:26:05.800Z,46.43
2023-03-16T11:27:05.772Z,47.93
2023-03-16T11:28:05.759Z,49.82
2023-03-16T11:29:05.765Z,45.68
2023-03-16T11:30:06.238Z,50.69
2023-03-16T11:31:05.776Z,57.73
2023-03-16T11:32:05.749Z,52.99
2023-03-16T11:33:05.800Z,53.02
2023-03-16T11:34:05.900Z,47.50
2023-03-16T11:35:05.708Z,44.70
2023-03-16T11:36:05.699Z,48.68
2023-03-16T11:37:05.687Z,51.60
2023-03-16T11:38:05.660Z,47.75
2023-03-16T11:39:05.682Z,51.39
2023-03-16T11:40:05.688Z,50.99
2023-03-16T11:41:05.661Z,55.17
2023-03-16T11:42:05.635Z,52.78
2023-03-16T11:43:05.607Z,54.76
2023-03-16T11:44:05.646Z,54.86
2023-03-16T11:45:05.663Z,52.99
2023-03-16T11:46:05.628Z,48.83
2023-03-16T11:47:05.588Z,54.48
2023-03-16T11:48:05.562Z,53.80
2023-03-16T12:34:40.251Z,52.38
2023-03-16T12:35:40.271Z,49.54
2023-03-16T12:36:40.233Z,48.79
2023-03-16T12:37:40.227Z,49.54
2023-03-16T12:38:40.251Z,54.00
2023-03-16T12:39:40.306Z,54.00
2023-03-16T12:40:40.720Z,53.89
2023-03-16T12:41:40.185Z,54.39
2023-03-16T12:42:40.166Z,49.45
2023-03-16T12:43:40.168Z,56.59
2023-03-16T12:44:40.154Z,54.17
2023-03-16T12:45:40.178Z,50.01
2023-03-16T12:46:41.336Z,53.01
2023-03-16T12:47:41.309Z,53.04
2023-03-16T12:48:41.272Z,51.06
2023-03-16T12:49:41.355Z,55.50
2023-03-16T12:50:41.318Z,49.06
2023-03-16T12:51:41.303Z,47.85
2023-03-16T12:52:41.223Z,48.73
2023-03-16T12:53:41.254Z,49.98
2023-03-16T12:54:42.180Z,51.38
2023-03-16T12:55:41.224Z,51.37
2023-03-16T12:56:41.196Z,53.07
2023-03-16T12:57:41.207Z,54.45
2023-03-16T12:58:41.180Z,57.56
2023-03-16T12:59:41.211Z,53.68
2023-03-16T13:00:41.289Z,50.42
2023-03-16T13:01:41.264Z,51.26
2023-03-16T13:02:41.169Z,54.42
2023-03-16T13:03:41.506Z,55.39
2023-03-16T13:04:41.173Z,55.00
2023-03-16T13:05:41.128Z,51.31
2023-03-16T13:06:41.209Z,56.42
2023-03-16T13:07:41.153Z,53.33
2023-03-16T13:08:41.102Z,54.59
2023-03-16T13:09:41.104Z,56.26
2023-03-16T13:10:41.183Z,50.47
2023-03-16T13:11:41.143Z,53.98
2023-03-16T13:12:41.090Z,51.18
2023-03-16T13:13:41.103Z,56.52
2023-03-16T13:14:41.172Z,53.39
2023-03-16T13:15:41.147Z,53.01
2023-03-16T13:16:41.207Z,50.56
2023-03-16T13:17:41.136Z,54.18
2023-03-16T13:18:40.990Z,53.31
2023-03-16T13:19:41.025Z,52.93
2023-03-16T13:20:41.039Z,48.87
2023-03-16T13:21:41.057Z,51.67
2023-03-16T13:22:41.114Z,50.28
2023-03-16T13:23:41.074Z,51.40
2023-03-16T13:24:40.980Z,51.10
2023-03-16T13:25:40.934Z,53.17
2023-03-16T13:26:40.940Z,53.86
2023-03-16T13:27:40.969Z,53.69
2023-03-16T13:28:40.908Z,48.60
2023-03-16T13:29:40.874Z,54.89
2023-03-16T13:30:40.947Z,51.42
2023-03-16T13:31:40.929Z,51.85
2023-03-16T13:32:40.947Z,47.60
2023-03-16T13:33:41.960Z,49.12
2023-03-16T13:34:40.863Z,52.87
2023-03-16T13:35:40.991Z,55.25
2023-03-16T13:36:40.867Z,47.21
2023-03-16T13:37:40.838Z,51.07
2023-03-16T13:38:40.822Z,51.97
2023-03-16T13:39:40.774Z,53.68
2023-03-16T13:40:40.823Z,50.08
2023-03-16T13:41:43.207Z,47.29
2023-03-16T13:42:40.838Z,48.55
2023-03-16T13:43:40.780Z,51.45
2023-03-16T13:44:40.813Z,54.33
2023-03-16T13:45:40.734Z,48.96
2023-03-16T13:46:40.737Z,52.22